Keswick, United Kingdom

6:46 PM BST on August 30, 2014 (GMT +0100)
Manesty | Change Station
CLOSE
Current Station
Personal Weather Station
Location: Keswick, CUMBRIA
Elevation: 285 ft
Nearby Weather Stations

Elev 285 ft 54.55 °N, 3.16 °W | Updated 0 second ago

Partly Cloudy
Partly Cloudy
61.5 °F
Feels Like 61.5 °F
N
8.0
Wind Variable Wind from North
Gusts 13.0 mph

Today
High -- | Low -- °F
--% Chance of Precip.
Yesterday
High -- | Low -- °F
Precip. -- in
6:15 AM 8:09 PM
Waxing Crescent, 23% visible
Pressure 29.95 in
Visibility 6.2 miles
Clouds Few 1200 ft
Dew Point 52 °F
Humidity 71%
Rainfall 0.00 in
Snow Depth Not available.
UV 1 out of 12
Pollen Not available.
Air Quality Not available.
Flu Activity Not available.
METAR EGNH 301720Z 27016KT 9999 FEW012 16/14 Q1014

More Conditions Fewer Conditions

Pressure 29.95 in
Visibility 6.2 miles
Clouds Few 1200 ft
Dew Point 52 °F
Humidity 71%
Rainfall 0.00 in
Snow Depth Not available.
UV 1 out of 12
Pollen Not available.
Air Quality Not available.
Flu Activity Not available.
METAR EGNH 301720Z 27016KT 9999 FEW012 16/14 Q1014

More Conditions Fewer Conditions

10-Day Weather Forecast

Almanac

Astronomy

Aug. 30, 2014 Rise Set
Actual Time 6:15 AM BST 8:09 PM BST
Civil Twilight 5:37 AM BST 8:47 PM BST
Nautical Twilight 4:49 AM BST 9:35 PM BST
Astronomical Twilight 3:53 AM BST 10:30 PM BST
Moon 11:38 AM BST 9:42 PM BST
Length of Visible Light 15h 10m
Length of Day
13h 53m
Tomorrow will be 4m 17s shorter.
Waxing Crescent, 23% of the Moon is Illuminated
Today
Waxing Crescent
Sep 2
First Quarter
Sep 8
Full
Sep 15
Last Quarter
Sep 24
New

Today's Extremes

Country Highs Country Lows

Community

WunderPhotos

Upload Photos

1,748,581 photos uploaded!

WunderBlogs® & News

Nearby

Snow Depth

Not available.

Earthquake Activity

City Distance Mag. Time & Date
No recent earthquake activity has been reported nearby.
Minimum magnitude displayed is 2.5.

Coastal Water Temperatures

Place Temperature
No Stations Reporting

Nearby Weather Stations